createdAt,value
2022-09-02T00:01:41.866Z,11.50
2022-09-02T00:04:14.804Z,11.15
2022-09-02T00:06:43.602Z,9.57
2022-09-02T00:09:15.167Z,10.70
2022-09-02T00:11:45.797Z,10.07
2022-09-02T00:14:20.031Z,8.90
2022-09-02T00:16:51.783Z,8.43
2022-09-02T00:19:24.350Z,10.45
2022-09-02T00:24:23.056Z,7.22
2022-09-02T00:26:56.660Z,8.40
2022-09-02T00:29:26.997Z,10.88
2022-09-02T00:31:57.605Z,10.82
2022-09-02T00:34:25.765Z,8.68
2022-09-02T00:36:54.051Z,9.90
2022-09-02T00:39:21.425Z,8.63
2022-09-02T00:41:48.853Z,9.93
2022-09-02T00:44:21.994Z,9.23
2022-09-02T00:46:49.099Z,7.75
2022-09-02T00:49:19.567Z,8.70
2022-09-02T00:52:07.169Z,6.32
2022-09-02T00:54:46.690Z,8.65
2022-09-02T00:57:19.721Z,9.57
2022-09-02T01:00:00.191Z,12.30
2022-09-02T01:02:28.948Z,8.55
2022-09-02T01:04:56.862Z,8.80
2022-09-02T01:07:28.710Z,10.38
2022-09-02T01:09:58.099Z,13.00
2022-09-02T01:12:26.238Z,8.98
2022-09-02T01:14:53.779Z,13.13
2022-09-02T01:17:20.761Z,8.10
2022-09-02T01:19:54.706Z,13.07
2022-09-02T01:22:27.474Z,16.98
2022-09-02T01:25:00.519Z,12.43
2022-09-02T01:27:27.553Z,8.45
2022-09-02T01:29:59.246Z,7.60
2022-09-02T01:32:30.196Z,7.43
2022-09-02T01:34:58.036Z,9.18
2022-09-02T01:37:26.071Z,12.63
2022-09-02T01:39:53.675Z,12.95
2022-09-02T01:42:21.815Z,8.68
2022-09-02T01:44:48.987Z,14.25
2022-09-02T01:47:26.874Z,14.85
2022-09-02T01:49:55.577Z,15.82
2022-09-02T01:52:25.722Z,14.70
2022-09-02T01:54:53.088Z,12.93
2022-09-02T01:57:20.726Z,13.40
2022-09-02T01:59:48.000Z,13.77
2022-09-02T02:02:19.482Z,18.25
2022-09-02T02:04:48.850Z,16.55
2022-09-02T02:07:20.319Z,11.27
2022-09-02T02:09:48.471Z,14.15
2022-09-02T02:12:20.014Z,18.25
2022-09-02T02:14:48.231Z,13.05
2022-09-02T02:17:15.523Z,10.32
2022-09-02T02:19:43.856Z,15.88
2022-09-02T02:22:11.111Z,11.18
2022-09-02T02:24:39.022Z,17.40
2022-09-02T02:27:06.380Z,14.80
2022-09-02T02:29:36.084Z,15.35
2022-09-02T02:32:03.844Z,9.90
2022-09-02T02:34:31.003Z,11.07
2022-09-02T02:36:58.477Z,13.23
2022-09-02T02:39:26.069Z,16.05
2022-09-02T02:41:56.313Z,14.15
2022-09-02T02:44:24.771Z,11.82
2022-09-02T02:46:51.935Z,12.82
2022-09-02T02:49:19.187Z,13.82
2022-09-02T02:51:46.612Z,10.90
2022-09-02T02:54:14.574Z,6.85
2022-09-02T02:56:42.131Z,8.65
2022-09-02T02:59:09.205Z,10.95
2022-09-02T03:01:36.541Z,11.25
2022-09-02T03:04:05.909Z,11.68
2022-09-02T03:06:33.783Z,12.90
2022-09-02T03:09:01.237Z,5.93
2022-09-02T03:11:28.791Z,10.38
2022-09-02T03:13:59.279Z,7.63
2022-09-02T03:16:28.838Z,8.10
2022-09-02T03:18:55.925Z,8.07
2022-09-02T03:21:22.966Z,8.20
2022-09-02T03:23:50.695Z,7.70
2022-09-02T03:26:22.449Z,8.10
2022-09-02T03:28:50.629Z,7.18
2022-09-02T03:31:21.980Z,6.95
2022-09-02T03:33:49.701Z,10.95
2022-09-02T03:36:29.290Z,6.95
2022-09-02T03:39:00.362Z,7.07
2022-09-02T03:41:29.376Z,11.68
2022-09-02T03:44:01.492Z,8.20
2022-09-02T03:46:30.286Z,9.43
2022-09-02T03:48:58.021Z,7.03
2022-09-02T03:51:27.682Z,6.07
2022-09-02T03:53:55.006Z,7.78
2022-09-02T03:56:25.252Z,10.63
2022-09-02T03:58:53.509Z,10.38
2022-09-02T04:01:27.495Z,8.82
2022-09-02T04:03:56.912Z,10.77
2022-09-02T04:06:26.301Z,11.77
2022-09-02T04:09:01.706Z,8.82
2022-09-02T04:11:28.960Z,8.75
2022-09-02T04:13:56.436Z,7.50
2022-09-02T04:16:28.729Z,7.32
2022-09-02T04:19:02.187Z,11.00
2022-09-02T04:21:35.362Z,7.43
2022-09-02T04:24:06.306Z,8.48
2022-09-02T04:26:33.935Z,7.30
2022-09-02T04:29:01.594Z,9.00
2022-09-02T04:31:31.921Z,8.65
2022-09-02T04:34:01.037Z,11.60
2022-09-02T04:36:31.043Z,9.43
2022-09-02T04:39:02.084Z,5.93
2022-09-02T04:41:35.516Z,7.45
2022-09-02T04:44:08.904Z,9.73
2022-09-02T04:46:40.329Z,7.68
2022-09-02T04:49:11.699Z,9.90
2022-09-02T04:51:40.987Z,5.78
2022-09-02T04:54:09.988Z,7.15
2022-09-02T04:56:39.433Z,8.13
2022-09-02T04:59:11.453Z,5.50
2022-09-02T05:01:43.103Z,4.35
2022-09-02T05:04:16.127Z,6.38
2022-09-02T05:06:47.290Z,8.52
2022-09-02T05:09:19.870Z,6.20
2022-09-02T05:11:57.797Z,5.80
2022-09-02T05:14:28.450Z,9.23
2022-09-02T05:17:03.960Z,7.75
2022-09-02T05:19:35.453Z,9.90
2022-09-02T05:22:04.555Z,5.07
2022-09-02T05:24:35.850Z,6.13
2022-09-02T05:27:08.526Z,6.78
2022-09-02T05:29:37.222Z,5.10
2022-09-02T05:32:08.255Z,8.57
2022-09-02T05:34:39.087Z,7.50
2022-09-02T05:37:08.775Z,9.88
2022-09-02T05:39:37.049Z,14.00
2022-09-02T05:42:09.511Z,8.80
2022-09-02T05:44:38.996Z,5.18
2022-09-02T05:47:07.819Z,4.57
2022-09-02T05:49:35.177Z,8.35
2022-09-02T05:52:13.752Z,5.95
2022-09-02T05:54:46.045Z,8.45
2022-09-02T05:57:18.013Z,6.30
2022-09-02T05:59:59.263Z,4.13
2022-09-02T06:02:43.408Z,8.30
2022-09-02T06:05:25.385Z,8.32
2022-09-02T06:08:00.313Z,6.80
2022-09-02T06:10:27.578Z,9.50
2022-09-02T06:12:55.133Z,6.43
2022-09-02T06:15:30.852Z,7.30
2022-09-02T06:18:00.362Z,6.80
2022-09-02T06:20:32.437Z,7.45
2022-09-02T06:23:00.574Z,10.27
2022-09-02T06:25:27.802Z,6.72
2022-09-02T06:27:54.807Z,8.25
2022-09-02T06:30:21.829Z,7.28
2022-09-02T06:32:50.389Z,6.20
2022-09-02T06:35:18.625Z,4.68
2022-09-02T06:37:45.907Z,6.82
2022-09-02T06:40:14.026Z,4.40
2022-09-02T06:42:42.512Z,12.35
2022-09-02T06:45:26.953Z,5.53
2022-09-02T06:47:56.934Z,4.97
2022-09-02T06:50:24.133Z,6.47
2022-09-02T06:52:51.332Z,8.70
2022-09-02T06:55:19.419Z,12.30
2022-09-02T06:57:46.784Z,6.18
2022-09-02T07:00:16.847Z,4.40
2022-09-02T07:03:06.953Z,6.57
2022-09-02T07:05:35.962Z,5.03
2022-09-02T07:08:03.406Z,6.63
2022-09-02T07:10:30.721Z,8.48
2022-09-02T07:12:59.846Z,6.05
2022-09-02T07:15:27.326Z,4.93
2022-09-02T07:17:54.355Z,5.85
2022-09-02T07:20:27.785Z,5.25
2022-09-02T07:22:59.152Z,5.78
2022-09-02T07:25:30.126Z,5.95
2022-09-02T07:27:57.174Z,5.20
2022-09-02T07:30:25.415Z,5.28
2022-09-02T07:32:58.667Z,7.07
2022-09-02T07:35:29.492Z,5.35
2022-09-02T07:37:57.018Z,7.03
2022-09-02T07:40:24.630Z,4.50
2022-09-02T07:42:52.607Z,4.45
2022-09-02T07:45:22.226Z,3.05
2022-09-02T07:47:49.982Z,6.68
2022-09-02T07:50:21.025Z,5.60
2022-09-02T07:52:59.867Z,3.25
2022-09-02T07:55:31.149Z,2.83
2022-09-02T07:58:02.240Z,5.65
2022-09-02T08:00:31.045Z,4.90
2022-09-02T08:03:05.719Z,2.45
2022-09-02T08:05:40.238Z,2.15
2022-09-02T08:08:08.517Z,2.28
2022-09-02T08:10:36.586Z,2.83
2022-09-02T08:13:06.391Z,1.48
2022-09-02T08:15:36.496Z,2.97
2022-09-02T08:18:05.003Z,4.38
2022-09-02T08:20:32.669Z,2.80
2022-09-02T08:23:12.431Z,3.85
2022-09-02T08:25:51.976Z,3.13
2022-09-02T08:28:19.053Z,6.60
2022-09-02T08:30:46.611Z,10.75
2022-09-02T08:33:14.980Z,2.92
2022-09-02T08:35:45.135Z,1.95
2022-09-02T08:38:12.407Z,7.18
2022-09-02T08:40:44.593Z,5.53
2022-09-02T08:43:41.533Z,3.00
2022-09-02T08:46:20.278Z,3.40
2022-09-02T08:48:57.352Z,3.22
2022-09-02T08:51:53.351Z,2.50
2022-09-02T08:54:58.329Z,3.38
2022-09-02T08:57:27.644Z,2.50
2022-09-02T09:00:02.659Z,1.90
2022-09-02T09:03:02.726Z,2.05
2022-09-02T09:05:49.594Z,1.02
2022-09-02T09:09:00.196Z,2.40
2022-09-02T09:11:39.702Z,1.17
2022-09-02T09:14:27.191Z,1.20
2022-09-02T09:17:01.436Z,5.78
2022-09-02T09:19:51.511Z,2.20
2022-09-02T09:22:26.119Z,2.72
2022-09-02T09:24:55.459Z,3.15
2022-09-02T09:27:23.488Z,1.23
2022-09-02T09:29:52.821Z,1.13
2022-09-02T09:32:37.792Z,2.08
2022-09-02T09:35:17.687Z,3.05
2022-09-02T09:37:48.640Z,1.25
2022-09-02T09:40:32.301Z,0.75
2022-09-02T09:43:14.840Z,5.68
2022-09-02T09:45:51.489Z,1.35
2022-09-02T09:48:29.984Z,1.33
2022-09-02T09:50:59.602Z,2.60
2022-09-02T09:53:35.700Z,0.98
2022-09-02T09:56:31.693Z,0.82
2022-09-02T09:58:59.013Z,1.48
2022-09-02T10:01:33.519Z,1.25
2022-09-02T10:04:49.239Z,1.17
2022-09-02T10:07:45.241Z,0.40
2022-09-02T10:10:26.422Z,0.70
2022-09-02T10:13:00.706Z,1.27
2022-09-02T10:16:29.951Z,0.75
2022-09-02T10:19:16.267Z,2.30
2022-09-02T10:22:58.697Z,1.55
2022-09-02T10:25:55.834Z,1.33
2022-09-02T10:29:19.995Z,0.85
2022-09-02T10:32:44.023Z,1.35
2022-09-02T10:35:23.365Z,4.18
2022-09-02T10:38:31.680Z,1.02
2022-09-02T10:44:31.137Z,3.80
2022-09-02T10:47:19.454Z,0.70
2022-09-02T10:50:23.730Z,3.13
2022-09-02T10:53:21.864Z,1.70
2022-09-02T10:56:05.347Z,0.82
2022-09-02T10:59:05.701Z,1.45
2022-09-02T11:01:54.644Z,1.30
2022-09-02T11:04:51.786Z,2.40
2022-09-02T11:07:31.225Z,1.92
2022-09-02T11:10:22.333Z,0.82
2022-09-02T11:13:24.136Z,0.65
2022-09-02T11:16:05.537Z,0.60
2022-09-02T11:19:32.818Z,0.70
2022-09-02T11:22:30.834Z,1.30
2022-09-02T11:25:12.493Z,4.13
2022-09-02T11:28:15.049Z,1.30
2022-09-02T11:30:55.814Z,0.95
2022-09-02T11:33:53.410Z,1.77
2022-09-02T11:36:25.318Z,1.80
2022-09-02T11:39:11.909Z,0.63
2022-09-02T11:42:27.788Z,3.97
2022-09-02T11:45:28.799Z,1.15
2022-09-02T11:48:23.287Z,10.23
2022-09-02T11:51:00.970Z,4.15
2022-09-02T11:53:38.827Z,2.15
2022-09-02T11:56:21.919Z,1.42
2022-09-02T11:58:58.183Z,1.27
2022-09-02T12:01:47.499Z,2.60
2022-09-02T12:07:08.712Z,4.75
2022-09-02T12:09:47.437Z,1.30
2022-09-02T12:12:36.736Z,0.93
2022-09-02T12:15:07.327Z,2.38
2022-09-02T12:17:51.269Z,2.05
2022-09-02T12:20:36.656Z,1.30
2022-09-02T12:23:06.755Z,2.30
2022-09-02T12:25:42.960Z,0.93
2022-09-02T12:28:25.874Z,4.68
2022-09-02T12:31:01.629Z,2.15
2022-09-02T12:33:41.788Z,1.45
2022-09-02T12:36:30.303Z,3.88
2022-09-02T12:39:40.878Z,2.45
2022-09-02T12:42:10.047Z,1.15
2022-09-02T12:44:46.470Z,2.50
2022-09-02T12:47:47.644Z,2.03
2022-09-02T12:50:57.684Z,4.15
2022-09-02T12:53:41.610Z,2.55
2022-09-02T12:56:24.777Z,2.00
2022-09-02T12:59:00.199Z,2.22
2022-09-02T13:02:03.463Z,0.93
2022-09-02T13:05:16.195Z,0.63
2022-09-02T13:08:30.050Z,1.48
2022-09-02T13:11:30.275Z,1.52
2022-09-02T13:14:56.322Z,0.93
2022-09-02T13:17:45.462Z,1.95
2022-09-02T13:20:19.861Z,2.45
2022-09-02T13:23:47.838Z,1.10
2022-09-02T13:27:11.595Z,2.63
2022-09-02T13:30:05.496Z,2.33
2022-09-02T13:32:35.837Z,2.90
2022-09-02T13:35:08.305Z,3.55
2022-09-02T13:37:43.469Z,1.25
2022-09-02T13:40:35.507Z,4.57
2022-09-02T13:43:20.728Z,1.45
2022-09-02T13:45:54.248Z,1.00
2022-09-02T13:48:26.628Z,1.40
2022-09-02T13:50:59.259Z,1.48
2022-09-02T13:53:49.326Z,2.28
2022-09-02T13:56:30.998Z,2.35
2022-09-02T13:58:58.976Z,2.47
2022-09-02T14:01:41.942Z,1.85
2022-09-02T14:04:17.443Z,4.65
2022-09-02T14:06:48.670Z,2.30
2022-09-02T14:09:31.061Z,1.40
2022-09-02T14:14:34.879Z,2.25
2022-09-02T14:17:26.384Z,3.67
2022-09-02T14:20:21.324Z,2.75
2022-09-02T14:22:55.932Z,1.98
2022-09-02T14:25:27.618Z,2.05
2022-09-02T14:28:05.750Z,2.40
2022-09-02T14:30:43.159Z,2.95
2022-09-02T14:33:23.013Z,0.95
2022-09-02T14:36:01.753Z,1.55
2022-09-02T14:38:52.796Z,1.00
2022-09-02T14:41:28.461Z,1.65
2022-09-02T14:44:10.835Z,1.33
2022-09-02T14:47:07.209Z,1.10
2022-09-02T14:49:47.637Z,1.40
2022-09-02T14:52:22.118Z,1.58
2022-09-02T14:54:56.497Z,1.33
2022-09-02T14:57:35.946Z,1.80
2022-09-02T15:00:14.907Z,3.50
2022-09-02T15:02:47.706Z,1.60
2022-09-02T15:05:15.466Z,2.80
2022-09-02T15:07:43.061Z,4.63
2022-09-02T15:10:10.294Z,1.25
2022-09-02T15:12:50.236Z,1.55
2022-09-02T15:15:18.359Z,1.48
2022-09-02T15:17:45.635Z,1.00
2022-09-02T15:20:12.990Z,1.40
2022-09-02T15:22:40.277Z,1.45
2022-09-02T15:25:08.916Z,1.75
2022-09-02T15:27:37.082Z,2.10
2022-09-02T15:30:07.155Z,1.25
2022-09-02T15:32:37.834Z,1.15
2022-09-02T15:35:09.793Z,2.90
2022-09-02T15:37:38.157Z,2.50
2022-09-02T15:40:08.358Z,2.25
2022-09-02T15:42:36.997Z,1.98
2022-09-02T15:45:08.994Z,3.83
2022-09-02T15:47:38.176Z,1.90
2022-09-02T15:50:10.081Z,1.85
2022-09-02T15:52:40.454Z,3.60
2022-09-02T15:55:07.871Z,1.30
2022-09-02T15:57:34.912Z,4.15
2022-09-02T16:00:01.895Z,6.10
2022-09-02T16:02:39.222Z,1.23
2022-09-02T16:05:06.624Z,2.78
2022-09-02T16:07:33.737Z,3.83
2022-09-02T16:10:03.498Z,2.65
2022-09-02T16:12:31.925Z,2.65
2022-09-02T16:14:58.889Z,3.03
2022-09-02T16:17:25.868Z,1.25
2022-09-02T16:19:54.163Z,2.00
2022-09-02T16:22:21.347Z,1.40
2022-09-02T16:24:50.942Z,2.92
2022-09-02T16:27:40.142Z,1.77
2022-09-02T16:30:08.146Z,4.05
2022-09-02T16:32:38.796Z,0.98
2022-09-02T16:35:07.037Z,3.58
2022-09-02T16:37:34.444Z,1.17
2022-09-02T16:40:03.330Z,1.60
2022-09-02T16:42:32.035Z,25.63
2022-09-02T16:45:00.852Z,2.83
2022-09-02T16:47:27.788Z,1.83
2022-09-02T16:49:54.850Z,4.40
2022-09-02T16:52:22.074Z,17.60
2022-09-02T16:54:49.725Z,2.28
2022-09-02T16:57:16.642Z,2.08
2022-09-02T16:59:43.611Z,2.42
2022-09-02T17:02:10.742Z,3.67
2022-09-02T17:04:38.659Z,3.58
2022-09-02T17:07:05.733Z,2.05
2022-09-02T17:09:33.005Z,3.30
2022-09-02T17:12:00.447Z,2.80
2022-09-02T17:14:27.503Z,3.28
2022-09-02T17:16:54.911Z,2.88
2022-09-02T17:19:27.217Z,3.95
2022-09-02T17:21:56.645Z,2.33
2022-09-02T17:24:31.549Z,4.47
2022-09-02T17:27:00.547Z,2.42
2022-09-02T17:32:18.648Z,5.35
2022-09-02T17:34:46.601Z,3.33
2022-09-02T17:37:13.833Z,1.48
2022-09-02T17:39:41.265Z,1.23
2022-09-02T17:42:08.618Z,1.88
2022-09-02T17:44:39.506Z,2.28
2022-09-02T17:47:16.583Z,2.72
2022-09-02T17:49:46.200Z,2.17
2022-09-02T17:52:24.034Z,2.17
2022-09-02T17:54:53.673Z,3.08
2022-09-02T17:57:42.599Z,2.13
2022-09-02T18:00:22.701Z,5.38
2022-09-02T18:03:19.116Z,3.92
2022-09-02T18:06:01.642Z,2.22
2022-09-02T18:08:46.201Z,1.67
2022-09-02T18:11:16.847Z,1.92
2022-09-02T18:14:35.525Z,1.95
2022-09-02T18:17:23.694Z,1.60
2022-09-02T18:20:28.668Z,1.52
2022-09-02T18:23:36.553Z,1.65
2022-09-02T18:26:29.740Z,3.33
2022-09-02T18:29:44.400Z,1.83
2022-09-02T18:32:56.033Z,1.70
2022-09-02T18:35:36.882Z,2.40
2022-09-02T18:38:30.798Z,3.45
2022-09-02T18:41:26.376Z,2.50
2022-09-02T18:44:39.194Z,5.53
2022-09-02T18:47:22.741Z,2.53
2022-09-02T18:49:55.427Z,2.00
2022-09-02T18:52:28.210Z,2.92
2022-09-02T18:55:10.588Z,3.72
2022-09-02T18:57:51.129Z,2.40
2022-09-02T19:00:22.696Z,3.05
2022-09-02T19:03:05.235Z,2.05
2022-09-02T19:05:36.249Z,3.17
2022-09-02T19:08:32.886Z,2.40
2022-09-02T19:11:12.895Z,3.22
2022-09-02T19:13:46.752Z,6.13
2022-09-02T19:16:40.753Z,3.25
2022-09-02T19:19:09.328Z,2.13
2022-09-02T19:21:47.187Z,2.25
2022-09-02T19:24:39.402Z,3.25
2022-09-02T19:27:13.557Z,2.65
2022-09-02T19:29:47.894Z,3.70
2022-09-02T19:32:15.426Z,4.25
2022-09-02T19:34:45.292Z,2.95
2022-09-02T19:37:14.371Z,2.28
2022-09-02T19:39:44.620Z,3.70
2022-09-02T19:42:11.995Z,2.47
2022-09-02T19:44:40.074Z,5.75
2022-09-02T19:47:56.097Z,3.45
2022-09-02T19:49:57.458Z,3.15
2022-09-02T19:52:24.817Z,4.90
2022-09-02T19:54:54.787Z,2.95
2022-09-02T19:57:22.076Z,4.07
2022-09-02T19:59:51.789Z,3.40
2022-09-02T20:02:20.620Z,3.03
2022-09-02T20:04:48.564Z,4.28
2022-09-02T20:07:20.240Z,4.97
2022-09-02T20:09:48.179Z,4.72
2022-09-02T20:12:15.850Z,5.00
2022-09-02T20:14:42.975Z,4.10
2022-09-02T20:17:15.140Z,2.92
2022-09-02T20:19:43.514Z,3.58
2022-09-02T20:22:16.575Z,5.93
2022-09-02T20:24:46.011Z,3.30
2022-09-02T20:27:37.207Z,5.47
2022-09-02T20:30:16.714Z,3.65
2022-09-02T20:33:22.154Z,5.70
2022-09-02T20:36:34.581Z,4.57
2022-09-02T20:39:41.382Z,3.23
2022-09-02T20:42:53.052Z,3.78
2022-09-02T20:45:50.264Z,2.78
2022-09-02T20:48:25.234Z,3.05
2022-09-02T20:51:18.416Z,3.22
2022-09-02T20:56:57.903Z,6.22
2022-09-02T21:00:09.052Z,5.05
2022-09-02T21:03:01.082Z,4.78
2022-09-02T21:05:41.026Z,2.80
2022-09-02T21:08:26.450Z,3.40
2022-09-02T21:11:02.614Z,3.33
2022-09-02T21:13:54.702Z,10.48
2022-09-02T21:16:51.163Z,3.70
2022-09-02T21:19:35.137Z,3.58
2022-09-02T21:22:19.998Z,3.70
2022-09-02T21:25:26.887Z,4.38
2022-09-02T21:28:07.752Z,4.20
2022-09-02T21:30:42.195Z,6.45
2022-09-02T21:33:13.550Z,6.50
2022-09-02T21:35:44.378Z,2.90
2022-09-02T21:38:41.291Z,4.75
2022-09-02T21:41:46.939Z,3.33
2022-09-02T21:44:39.779Z,4.53
2022-09-02T21:47:26.878Z,6.53
2022-09-02T21:50:06.196Z,7.18
2022-09-02T21:53:19.359Z,7.63
2022-09-02T21:56:06.360Z,6.70
2022-09-02T21:59:09.011Z,7.15
2022-09-02T22:01:47.280Z,4.75
2022-09-02T22:05:07.752Z,3.17
2022-09-02T22:07:49.895Z,12.32
2022-09-02T22:10:40.543Z,12.07
2022-09-02T22:13:08.317Z,6.70
2022-09-02T22:16:21.310Z,7.32
2022-09-02T22:19:02.240Z,5.10
2022-09-02T22:21:47.025Z,6.18
2022-09-02T22:24:22.080Z,4.88
2022-09-02T22:27:02.357Z,4.78
2022-09-02T22:29:45.511Z,4.55
2022-09-02T22:32:18.058Z,6.38
2022-09-02T22:35:25.281Z,10.60
2022-09-02T22:38:10.299Z,14.20
2022-09-02T22:40:51.429Z,6.78
2022-09-02T22:43:31.208Z,10.82
2022-09-02T22:46:32.209Z,8.95
2022-09-02T22:49:48.816Z,9.15
2022-09-02T22:52:54.855Z,8.00
2022-09-02T22:55:48.649Z,9.40
2022-09-02T22:58:58.234Z,8.95
2022-09-02T23:02:05.861Z,15.73
2022-09-02T23:05:03.191Z,11.48
2022-09-02T23:07:31.409Z,8.45
2022-09-02T23:10:01.906Z,9.30
2022-09-02T23:12:44.598Z,8.18
2022-09-02T23:18:18.184Z,8.88
2022-09-02T23:21:10.628Z,7.93
2022-09-02T23:23:55.538Z,7.57
2022-09-02T23:26:45.532Z,7.13
2022-09-02T23:29:25.973Z,8.15
2022-09-02T23:32:05.827Z,8.77
2022-09-02T23:35:00.686Z,7.45
2022-09-02T23:38:16.029Z,8.43
2022-09-02T23:40:46.817Z,9.73
2022-09-02T23:43:18.061Z,5.80
2022-09-02T23:45:47.468Z,5.78
2022-09-02T23:48:44.318Z,8.23
2022-09-02T23:51:32.650Z,5.47
2022-09-02T23:54:37.776Z,5.95
2022-09-02T23:57:42.531Z,6.00
